sensor_id;sensor_type;location;lat;lon;timestamp;P1;durP1;ratioP1;P2;durP2;ratioP2
37409;SDS011;23275;48.914;12.566;2023-04-25T00:02:05;3.20;;;2.00;;
37409;SDS011;23275;48.914;12.566;2023-04-25T00:04:31;5.70;;;2.50;;
37409;SDS011;23275;48.914;12.566;2023-04-25T00:06:58;4.22;;;2.70;;
37409;SDS011;23275;48.914;12.566;2023-04-25T00:09:26;4.93;;;2.60;;
37409;SDS011;23275;48.914;12.566;2023-04-25T00:11:52;3.60;;;2.25;;
37409;SDS011;23275;48.914;12.566;2023-04-25T00:14:18;3.45;;;2.30;;
37409;SDS011;23275;48.914;12.566;2023-04-25T00:16:43;3.50;;;2.42;;
37409;SDS011;23275;48.914;12.566;2023-04-25T00:19:09;4.15;;;2.63;;
37409;SDS011;23275;48.914;12.566;2023-04-25T00:21:35;5.53;;;2.63;;
37409;SDS011;23275;48.914;12.566;2023-04-25T00:24:02;4.38;;;2.78;;
37409;SDS011;23275;48.914;12.566;2023-04-25T00:26:28;5.40;;;2.95;;
37409;SDS011;23275;48.914;12.566;2023-04-25T00:28:54;5.47;;;3.25;;
37409;SDS011;23275;48.914;12.566;2023-04-25T00:31:20;4.60;;;3.60;;
37409;SDS011;23275;48.914;12.566;2023-04-25T00:33:47;5.00;;;2.90;;
37409;SDS011;23275;48.914;12.566;2023-04-25T00:36:13;5.80;;;3.35;;
37409;SDS011;23275;48.914;12.566;2023-04-25T00:38:39;5.80;;;3.20;;
37409;SDS011;23275;48.914;12.566;2023-04-25T00:41:08;7.05;;;3.15;;
37409;SDS011;23275;48.914;12.566;2023-04-25T00:43:34;7.18;;;3.15;;
37409;SDS011;23275;48.914;12.566;2023-04-25T00:46:01;4.95;;;3.20;;
37409;SDS011;23275;48.914;12.566;2023-04-25T00:48:27;6.20;;;3.10;;
37409;SDS011;23275;48.914;12.566;2023-04-25T00:50:53;7.63;;;3.72;;
37409;SDS011;23275;48.914;12.566;2023-04-25T00:53:22;5.25;;;2.90;;
37409;SDS011;23275;48.914;12.566;2023-04-25T00:55:49;5.88;;;3.30;;
37409;SDS011;23275;48.914;12.566;2023-04-25T00:58:18;6.28;;;3.53;;
37409;SDS011;23275;48.914;12.566;2023-04-25T01:00:45;8.20;;;4.00;;
37409;SDS011;23275;48.914;12.566;2023-04-25T01:03:12;8.15;;;3.95;;
37409;SDS011;23275;48.914;12.566;2023-04-25T01:05:39;7.20;;;3.60;;
37409;SDS011;23275;48.914;12.566;2023-04-25T01:08:08;6.07;;;3.45;;
37409;SDS011;23275;48.914;12.566;2023-04-25T01:10:35;6.20;;;3.60;;
37409;SDS011;23275;48.914;12.566;2023-04-25T01:13:01;6.55;;;3.90;;
37409;SDS011;23275;48.914;12.566;2023-04-25T01:15:27;5.82;;;3.88;;
37409;SDS011;23275;48.914;12.566;2023-04-25T01:17:53;7.68;;;4.18;;
37409;SDS011;23275;48.914;12.566;2023-04-25T01:20:20;7.22;;;3.80;;
37409;SDS011;23275;48.914;12.566;2023-04-25T01:22:48;7.70;;;3.85;;
37409;SDS011;23275;48.914;12.566;2023-04-25T01:25:14;5.10;;;3.28;;
37409;SDS011;23275;48.914;12.566;2023-04-25T01:27:40;6.28;;;3.95;;
37409;SDS011;23275;48.914;12.566;2023-04-25T01:30:06;8.93;;;3.78;;
37409;SDS011;23275;48.914;12.566;2023-04-25T01:32:32;8.68;;;3.92;;
37409;SDS011;23275;48.914;12.566;2023-04-25T01:35:04;6.10;;;3.72;;
37409;SDS011;23275;48.914;12.566;2023-04-25T01:37:34;7.15;;;3.75;;
37409;SDS011;23275;48.914;12.566;2023-04-25T01:40:01;5.68;;;3.30;;
37409;SDS011;23275;48.914;12.566;2023-04-25T01:42:26;6.00;;;3.28;;
37409;SDS011;23275;48.914;12.566;2023-04-25T01:44:52;6.88;;;3.83;;
37409;SDS011;23275;48.914;12.566;2023-04-25T01:47:18;5.85;;;3.30;;
37409;SDS011;23275;48.914;12.566;2023-04-25T01:49:43;5.55;;;3.20;;
37409;SDS011;23275;48.914;12.566;2023-04-25T01:52:09;5.18;;;3.33;;
37409;SDS011;23275;48.914;12.566;2023-04-25T01:54:35;5.47;;;2.67;;
37409;SDS011;23275;48.914;12.566;2023-04-25T01:57:00;7.50;;;3.90;;
37409;SDS011;23275;48.914;12.566;2023-04-25T01:59:26;5.28;;;3.42;;
37409;SDS011;23275;48.914;12.566;2023-04-25T02:01:52;4.80;;;3.40;;
37409;SDS011;23275;48.914;12.566;2023-04-25T02:04:17;9.13;;;3.58;;
37409;SDS011;23275;48.914;12.566;2023-04-25T02:06:43;5.18;;;3.65;;
37409;SDS011;23275;48.914;12.566;2023-04-25T02:09:08;6.65;;;3.45;;
37409;SDS011;23275;48.914;12.566;2023-04-25T02:11:34;7.25;;;3.95;;
37409;SDS011;23275;48.914;12.566;2023-04-25T02:14:00;4.45;;;2.88;;
37409;SDS011;23275;48.914;12.566;2023-04-25T02:16:25;6.72;;;3.50;;
37409;SDS011;23275;48.914;12.566;2023-04-25T02:18:51;6.05;;;3.22;;
37409;SDS011;23275;48.914;12.566;2023-04-25T02:21:17;3.97;;;2.75;;
37409;SDS011;23275;48.914;12.566;2023-04-25T02:23:43;6.97;;;3.25;;
37409;SDS011;23275;48.914;12.566;2023-04-25T02:26:12;7.05;;;3.53;;
37409;SDS011;23275;48.914;12.566;2023-04-25T02:28:38;4.75;;;3.42;;
37409;SDS011;23275;48.914;12.566;2023-04-25T02:31:03;4.55;;;3.10;;
37409;SDS011;23275;48.914;12.566;2023-04-25T02:33:30;5.00;;;3.45;;
37409;SDS011;23275;48.914;12.566;2023-04-25T02:35:55;4.55;;;3.33;;
37409;SDS011;23275;48.914;12.566;2023-04-25T02:38:21;5.10;;;3.33;;
37409;SDS011;23275;48.914;12.566;2023-04-25T02:40:46;7.40;;;3.85;;
37409;SDS011;23275;48.914;12.566;2023-04-25T02:43:12;5.22;;;3.65;;
37409;SDS011;23275;48.914;12.566;2023-04-25T02:45:37;4.03;;;2.83;;
37409;SDS011;23275;48.914;12.566;2023-04-25T02:48:03;5.93;;;3.28;;
37409;SDS011;23275;48.914;12.566;2023-04-25T02:50:29;4.60;;;2.95;;
37409;SDS011;23275;48.914;12.566;2023-04-25T02:52:54;5.15;;;3.08;;
37409;SDS011;23275;48.914;12.566;2023-04-25T02:55:20;7.25;;;3.58;;
37409;SDS011;23275;48.914;12.566;2023-04-25T02:57:47;4.57;;;3.20;;
37409;SDS011;23275;48.914;12.566;2023-04-25T03:00:12;5.95;;;3.45;;
37409;SDS011;23275;48.914;12.566;2023-04-25T03:02:39;4.47;;;3.33;;
37409;SDS011;23275;48.914;12.566;2023-04-25T03:05:05;9.27;;;3.20;;
37409;SDS011;23275;48.914;12.566;2023-04-25T03:07:31;5.18;;;3.35;;
37409;SDS011;23275;48.914;12.566;2023-04-25T03:09:56;7.03;;;3.67;;
37409;SDS011;23275;48.914;12.566;2023-04-25T03:12:22;4.50;;;3.30;;
37409;SDS011;23275;48.914;12.566;2023-04-25T03:14:47;5.00;;;3.28;;
37409;SDS011;23275;48.914;12.566;2023-04-25T03:17:13;5.43;;;3.38;;
37409;SDS011;23275;48.914;12.566;2023-04-25T03:19:38;6.28;;;3.30;;
37409;SDS011;23275;48.914;12.566;2023-04-25T03:22:05;7.07;;;3.78;;
37409;SDS011;23275;48.914;12.566;2023-04-25T03:24:31;5.57;;;3.85;;
37409;SDS011;23275;48.914;12.566;2023-04-25T03:26:56;7.22;;;4.60;;
37409;SDS011;23275;48.914;12.566;2023-04-25T03:29:22;5.75;;;3.80;;
37409;SDS011;23275;48.914;12.566;2023-04-25T03:31:50;5.80;;;3.63;;
37409;SDS011;23275;48.914;12.566;2023-04-25T03:34:16;6.05;;;3.38;;
37409;SDS011;23275;48.914;12.566;2023-04-25T03:36:41;5.18;;;3.85;;
37409;SDS011;23275;48.914;12.566;2023-04-25T03:39:07;6.38;;;3.42;;
37409;SDS011;23275;48.914;12.566;2023-04-25T03:41:33;5.20;;;3.15;;
37409;SDS011;23275;48.914;12.566;2023-04-25T03:43:58;5.70;;;3.55;;
37409;SDS011;23275;48.914;12.566;2023-04-25T03:46:24;5.55;;;3.80;;
37409;SDS011;23275;48.914;12.566;2023-04-25T03:48:49;5.43;;;3.55;;
37409;SDS011;23275;48.914;12.566;2023-04-25T03:51:15;5.63;;;4.22;;
37409;SDS011;23275;48.914;12.566;2023-04-25T03:53:40;5.50;;;3.70;;
37409;SDS011;23275;48.914;12.566;2023-04-25T03:56:06;6.88;;;3.80;;
37409;SDS011;23275;48.914;12.566;2023-04-25T03:58:32;6.50;;;4.88;;
37409;SDS011;23275;48.914;12.566;2023-04-25T04:00:57;5.57;;;3.75;;
37409;SDS011;23275;48.914;12.566;2023-04-25T04:03:23;6.32;;;4.00;;
37409;SDS011;23275;48.914;12.566;2023-04-25T04:05:48;6.68;;;3.70;;
37409;SDS011;23275;48.914;12.566;2023-04-25T04:08:15;4.82;;;3.17;;
37409;SDS011;23275;48.914;12.566;2023-04-25T04:10:40;4.88;;;3.03;;
37409;SDS011;23275;48.914;12.566;2023-04-25T04:13:06;5.95;;;3.55;;
37409;SDS011;23275;48.914;12.566;2023-04-25T04:15:31;6.60;;;3.83;;
37409;SDS011;23275;48.914;12.566;2023-04-25T04:17:58;5.70;;;3.55;;
37409;SDS011;23275;48.914;12.566;2023-04-25T04:20:27;5.00;;;3.22;;
37409;SDS011;23275;48.914;12.566;2023-04-25T04:22:54;6.25;;;4.03;;
37409;SDS011;23275;48.914;12.566;2023-04-25T04:25:19;4.80;;;3.50;;
37409;SDS011;23275;48.914;12.566;2023-04-25T04:27:45;5.13;;;3.58;;
37409;SDS011;23275;48.914;12.566;2023-04-25T04:30:11;6.05;;;3.80;;
37409;SDS011;23275;48.914;12.566;2023-04-25T04:32:37;6.18;;;3.85;;
37409;SDS011;23275;48.914;12.566;2023-04-25T04:35:03;5.82;;;3.22;;
37409;SDS011;23275;48.914;12.566;2023-04-25T04:37:29;10.38;;;4.40;;
37409;SDS011;23275;48.914;12.566;2023-04-25T04:39:55;6.28;;;4.38;;
37409;SDS011;23275;48.914;12.566;2023-04-25T04:42:21;9.13;;;4.47;;
37409;SDS011;23275;48.914;12.566;2023-04-25T04:44:49;7.07;;;3.42;;
37409;SDS011;23275;48.914;12.566;2023-04-25T04:47:15;10.75;;;3.63;;
37409;SDS011;23275;48.914;12.566;2023-04-25T04:49:40;9.20;;;3.72;;
37409;SDS011;23275;48.914;12.566;2023-04-25T04:52:06;7.10;;;3.33;;
37409;SDS011;23275;48.914;12.566;2023-04-25T04:54:32;6.25;;;3.53;;
37409;SDS011;23275;48.914;12.566;2023-04-25T04:56:58;6.50;;;4.07;;
37409;SDS011;23275;48.914;12.566;2023-04-25T04:59:24;7.15;;;4.50;;
37409;SDS011;23275;48.914;12.566;2023-04-25T05:01:50;7.13;;;4.10;;
37409;SDS011;23275;48.914;12.566;2023-04-25T05:04:15;7.03;;;4.00;;
37409;SDS011;23275;48.914;12.566;2023-04-25T05:06:41;8.27;;;4.25;;
37409;SDS011;23275;48.914;12.566;2023-04-25T05:09:06;5.80;;;3.90;;
37409;SDS011;23275;48.914;12.566;2023-04-25T05:11:32;7.07;;;3.67;;
37409;SDS011;23275;48.914;12.566;2023-04-25T05:13:57;6.47;;;3.50;;
37409;SDS011;23275;48.914;12.566;2023-04-25T05:16:23;6.47;;;3.80;;
37409;SDS011;23275;48.914;12.566;2023-04-25T05:18:48;5.47;;;3.75;;
37409;SDS011;23275;48.914;12.566;2023-04-25T05:21:14;4.85;;;3.55;;
37409;SDS011;23275;48.914;12.566;2023-04-25T05:23:40;6.07;;;3.63;;
37409;SDS011;23275;48.914;12.566;2023-04-25T05:26:05;5.90;;;3.80;;
37409;SDS011;23275;48.914;12.566;2023-04-25T05:28:38;6.57;;;4.28;;
37409;SDS011;23275;48.914;12.566;2023-04-25T05:31:04;6.28;;;4.60;;
37409;SDS011;23275;48.914;12.566;2023-04-25T05:33:30;6.20;;;4.50;;
37409;SDS011;23275;48.914;12.566;2023-04-25T05:35:56;6.78;;;3.70;;
37409;SDS011;23275;48.914;12.566;2023-04-25T05:38:21;5.75;;;3.95;;
37409;SDS011;23275;48.914;12.566;2023-04-25T05:40:47;7.78;;;3.75;;
37409;SDS011;23275;48.914;12.566;2023-04-25T05:43:12;7.68;;;4.30;;
37409;SDS011;23275;48.914;12.566;2023-04-25T05:45:38;6.97;;;3.13;;
37409;SDS011;23275;48.914;12.566;2023-04-25T05:48:03;3.95;;;2.65;;
37409;SDS011;23275;48.914;12.566;2023-04-25T05:50:29;3.92;;;2.63;;
37409;SDS011;23275;48.914;12.566;2023-04-25T05:52:55;4.40;;;2.70;;
37409;SDS011;23275;48.914;12.566;2023-04-25T05:55:20;4.82;;;2.78;;
37409;SDS011;23275;48.914;12.566;2023-04-25T05:57:46;9.57;;;2.53;;
37409;SDS011;23275;48.914;12.566;2023-04-25T06:00:12;4.72;;;2.78;;
37409;SDS011;23275;48.914;12.566;2023-04-25T06:02:39;4.53;;;2.85;;
37409;SDS011;23275;48.914;12.566;2023-04-25T06:05:05;5.03;;;2.30;;
37409;SDS011;23275;48.914;12.566;2023-04-25T06:07:31;5.97;;;2.28;;
37409;SDS011;23275;48.914;12.566;2023-04-25T06:09:57;4.93;;;2.20;;
37409;SDS011;23275;48.914;12.566;2023-04-25T06:12:22;5.15;;;2.88;;
37409;SDS011;23275;48.914;12.566;2023-04-25T06:14:48;9.00;;;3.35;;
37409;SDS011;23275;48.914;12.566;2023-04-25T06:17:13;4.57;;;2.30;;
37409;SDS011;23275;48.914;12.566;2023-04-25T06:19:39;6.10;;;2.10;;
37409;SDS011;23275;48.914;12.566;2023-04-25T06:22:05;3.28;;;1.98;;
37409;SDS011;23275;48.914;12.566;2023-04-25T06:24:32;5.00;;;2.05;;
37409;SDS011;23275;48.914;12.566;2023-04-25T06:26:58;3.45;;;1.75;;
37409;SDS011;23275;48.914;12.566;2023-04-25T06:29:23;5.00;;;2.03;;
37409;SDS011;23275;48.914;12.566;2023-04-25T06:31:49;3.17;;;1.95;;
37409;SDS011;23275;48.914;12.566;2023-04-25T06:34:15;4.10;;;2.10;;
37409;SDS011;23275;48.914;12.566;2023-04-25T06:36:41;4.38;;;1.80;;
37409;SDS011;23275;48.914;12.566;2023-04-25T06:39:06;5.18;;;1.90;;
37409;SDS011;23275;48.914;12.566;2023-04-25T06:41:32;2.78;;;1.67;;
37409;SDS011;23275;48.914;12.566;2023-04-25T06:43:58;3.00;;;1.77;;
37409;SDS011;23275;48.914;12.566;2023-04-25T06:46:23;5.28;;;1.80;;
37409;SDS011;23275;48.914;12.566;2023-04-25T06:48:49;4.35;;;1.90;;
37409;SDS011;23275;48.914;12.566;2023-04-25T06:51:15;2.88;;;1.70;;
37409;SDS011;23275;48.914;12.566;2023-04-25T06:53:40;4.40;;;2.08;;
37409;SDS011;23275;48.914;12.566;2023-04-25T06:56:06;4.70;;;2.33;;
37409;SDS011;23275;48.914;12.566;2023-04-25T06:58:32;3.97;;;1.83;;
37409;SDS011;23275;48.914;12.566;2023-04-25T07:00:58;2.53;;;1.30;;
37409;SDS011;23275;48.914;12.566;2023-04-25T07:03:23;3.45;;;1.38;;
37409;SDS011;23275;48.914;12.566;2023-04-25T07:05:49;3.58;;;1.70;;
37409;SDS011;23275;48.914;12.566;2023-04-25T07:08:15;2.45;;;1.40;;
37409;SDS011;23275;48.914;12.566;2023-04-25T07:10:41;3.33;;;1.45;;
37409;SDS011;23275;48.914;12.566;2023-04-25T07:13:07;2.40;;;1.65;;
37409;SDS011;23275;48.914;12.566;2023-04-25T07:15:33;2.30;;;1.58;;
37409;SDS011;23275;48.914;12.566;2023-04-25T07:17:58;3.30;;;1.67;;
37409;SDS011;23275;48.914;12.566;2023-04-25T07:20:24;4.10;;;1.50;;
37409;SDS011;23275;48.914;12.566;2023-04-25T07:22:50;2.35;;;1.52;;
37409;SDS011;23275;48.914;12.566;2023-04-25T07:25:16;5.35;;;1.65;;
37409;SDS011;23275;48.914;12.566;2023-04-25T07:27:42;4.47;;;1.75;;
37409;SDS011;23275;48.914;12.566;2023-04-25T07:30:07;2.80;;;1.50;;
37409;SDS011;23275;48.914;12.566;2023-04-25T07:32:34;4.03;;;1.60;;
37409;SDS011;23275;48.914;12.566;2023-04-25T07:35:00;2.40;;;1.52;;
37409;SDS011;23275;48.914;12.566;2023-04-25T07:37:26;4.07;;;1.70;;
37409;SDS011;23275;48.914;12.566;2023-04-25T07:39:52;4.78;;;2.10;;
37409;SDS011;23275;48.914;12.566;2023-04-25T07:42:17;3.38;;;2.00;;
37409;SDS011;23275;48.914;12.566;2023-04-25T07:44:43;4.68;;;1.90;;
37409;SDS011;23275;48.914;12.566;2023-04-25T07:47:09;4.35;;;2.00;;
37409;SDS011;23275;48.914;12.566;2023-04-25T07:49:35;3.17;;;1.98;;
37409;SDS011;23275;48.914;12.566;2023-04-25T07:52:02;4.97;;;1.90;;
37409;SDS011;23275;48.914;12.566;2023-04-25T07:54:29;3.70;;;2.10;;
37409;SDS011;23275;48.914;12.566;2023-04-25T07:56:54;4.30;;;2.00;;
37409;SDS011;23275;48.914;12.566;2023-04-25T07:59:20;4.53;;;2.00;;
37409;SDS011;23275;48.914;12.566;2023-04-25T08:01:46;4.97;;;1.90;;
37409;SDS011;23275;48.914;12.566;2023-04-25T08:04:12;3.25;;;1.70;;
37409;SDS011;23275;48.914;12.566;2023-04-25T08:06:38;4.25;;;1.80;;
37409;SDS011;23275;48.914;12.566;2023-04-25T08:09:03;3.65;;;1.58;;
37409;SDS011;23275;48.914;12.566;2023-04-25T08:11:29;3.55;;;1.90;;
37409;SDS011;23275;48.914;12.566;2023-04-25T08:13:54;4.03;;;1.65;;
37409;SDS011;23275;48.914;12.566;2023-04-25T08:16:20;4.05;;;1.48;;
37409;SDS011;23275;48.914;12.566;2023-04-25T08:18:46;2.72;;;1.40;;
37409;SDS011;23275;48.914;12.566;2023-04-25T08:21:12;4.47;;;1.92;;
37409;SDS011;23275;48.914;12.566;2023-04-25T08:23:38;3.67;;;1.50;;
37409;SDS011;23275;48.914;12.566;2023-04-25T08:26:04;4.38;;;2.03;;
37409;SDS011;23275;48.914;12.566;2023-04-25T08:28:30;2.38;;;1.38;;
37409;SDS011;23275;48.914;12.566;2023-04-25T08:30:56;4.68;;;1.63;;
37409;SDS011;23275;48.914;12.566;2023-04-25T08:33:22;3.30;;;1.50;;
37409;SDS011;23275;48.914;12.566;2023-04-25T08:35:47;5.47;;;2.05;;
37409;SDS011;23275;48.914;12.566;2023-04-25T08:38:13;4.18;;;1.90;;
37409;SDS011;23275;48.914;12.566;2023-04-25T08:40:39;6.28;;;1.95;;
37409;SDS011;23275;48.914;12.566;2023-04-25T08:43:06;4.32;;;2.40;;
37409;SDS011;23275;48.914;12.566;2023-04-25T08:48:10;5.20;;;2.53;;
37409;SDS011;23275;48.914;12.566;2023-04-25T08:50:50;4.43;;;2.10;;
37409;SDS011;23275;48.914;12.566;2023-04-25T08:53:21;6.15;;;2.50;;
37409;SDS011;23275;48.914;12.566;2023-04-25T08:55:54;4.22;;;2.33;;
37409;SDS011;23275;48.914;12.566;2023-04-25T08:58:21;4.72;;;2.47;;
37409;SDS011;23275;48.914;12.566;2023-04-25T09:00:48;6.38;;;2.13;;
37409;SDS011;23275;48.914;12.566;2023-04-25T09:03:14;6.20;;;2.05;;
37409;SDS011;23275;48.914;12.566;2023-04-25T09:05:40;3.05;;;1.58;;
37409;SDS011;23275;48.914;12.566;2023-04-25T09:08:07;3.53;;;1.60;;
37409;SDS011;23275;48.914;12.566;2023-04-25T09:10:33;4.95;;;1.50;;
37409;SDS011;23275;48.914;12.566;2023-04-25T09:13:11;3.72;;;1.45;;
37409;SDS011;23275;48.914;12.566;2023-04-25T09:18:26;2.85;;;1.50;;
37409;SDS011;23275;48.914;12.566;2023-04-25T09:20:53;4.30;;;1.30;;
37409;SDS011;23275;48.914;12.566;2023-04-25T09:23:20;2.83;;;1.20;;
37409;SDS011;23275;48.914;12.566;2023-04-25T09:25:55;2.58;;;1.40;;
37409;SDS011;23275;48.914;12.566;2023-04-25T09:28:24;2.65;;;1.33;;
37409;SDS011;23275;48.914;12.566;2023-04-25T09:30:54;3.20;;;1.10;;
37409;SDS011;23275;48.914;12.566;2023-04-25T09:33:27;2.78;;;1.08;;
37409;SDS011;23275;48.914;12.566;2023-04-25T09:35:55;2.13;;;1.30;;
37409;SDS011;23275;48.914;12.566;2023-04-25T09:38:40;2.50;;;1.02;;
37409;SDS011;23275;48.914;12.566;2023-04-25T09:41:08;2.05;;;1.08;;
37409;SDS011;23275;48.914;12.566;2023-04-25T09:43:35;1.30;;;0.90;;
37409;SDS011;23275;48.914;12.566;2023-04-25T09:46:01;1.77;;;1.13;;
37409;SDS011;23275;48.914;12.566;2023-04-25T09:48:27;3.70;;;1.15;;
37409;SDS011;23275;48.914;12.566;2023-04-25T09:51:03;2.53;;;1.30;;
37409;SDS011;23275;48.914;12.566;2023-04-25T09:53:30;2.60;;;0.90;;
37409;SDS011;23275;48.914;12.566;2023-04-25T09:55:57;1.90;;;1.10;;
37409;SDS011;23275;48.914;12.566;2023-04-25T09:58:25;2.50;;;1.17;;
37409;SDS011;23275;48.914;12.566;2023-04-25T10:00:54;1.80;;;1.10;;
37409;SDS011;23275;48.914;12.566;2023-04-25T10:03:24;3.40;;;1.45;;
37409;SDS011;23275;48.914;12.566;2023-04-25T10:05:51;4.80;;;1.35;;
37409;SDS011;23275;48.914;12.566;2023-04-25T10:08:18;4.15;;;1.90;;
37409;SDS011;23275;48.914;12.566;2023-04-25T10:10:44;2.97;;;1.70;;
37409;SDS011;23275;48.914;12.566;2023-04-25T10:13:11;4.50;;;2.00;;
37409;SDS011;23275;48.914;12.566;2023-04-25T10:15:39;3.30;;;1.60;;
37409;SDS011;23275;48.914;12.566;2023-04-25T10:18:06;5.53;;;3.40;;
37409;SDS011;23275;48.914;12.566;2023-04-25T10:20:32;5.97;;;2.90;;
37409;SDS011;23275;48.914;12.566;2023-04-25T10:23:06;14.10;;;8.30;;
37409;SDS011;23275;48.914;12.566;2023-04-25T10:25:38;3.85;;;1.75;;
37409;SDS011;23275;48.914;12.566;2023-04-25T10:28:05;2.85;;;1.77;;
37409;SDS011;23275;48.914;12.566;2023-04-25T10:30:30;2.75;;;1.58;;
37409;SDS011;23275;48.914;12.566;2023-04-25T10:32:56;3.33;;;1.95;;
37409;SDS011;23275;48.914;12.566;2023-04-25T10:35:25;3.95;;;1.42;;
37409;SDS011;23275;48.914;12.566;2023-04-25T10:40:37;2.70;;;1.42;;
37409;SDS011;23275;48.914;12.566;2023-04-25T10:45:56;3.17;;;1.52;;
37409;SDS011;23275;48.914;12.566;2023-04-25T10:48:27;2.97;;;1.25;;
37409;SDS011;23275;48.914;12.566;2023-04-25T10:51:08;1.95;;;0.95;;
37409;SDS011;23275;48.914;12.566;2023-04-25T10:53:34;1.40;;;0.80;;
37409;SDS011;23275;48.914;12.566;2023-04-25T10:56:00;1.58;;;1.05;;
37409;SDS011;23275;48.914;12.566;2023-04-25T10:58:34;1.83;;;1.08;;
37409;SDS011;23275;48.914;12.566;2023-04-25T11:01:00;2.55;;;1.00;;
37409;SDS011;23275;48.914;12.566;2023-04-25T11:03:26;1.63;;;0.95;;
37409;SDS011;23275;48.914;12.566;2023-04-25T11:05:52;2.58;;;1.80;;
37409;SDS011;23275;48.914;12.566;2023-04-25T11:08:19;1.98;;;1.00;;
37409;SDS011;23275;48.914;12.566;2023-04-25T11:10:58;3.40;;;1.90;;
37409;SDS011;23275;48.914;12.566;2023-04-25T11:13:28;4.47;;;3.17;;
37409;SDS011;23275;48.914;12.566;2023-04-25T11:15:55;2.35;;;1.45;;
37409;SDS011;23275;48.914;12.566;2023-04-25T11:18:21;2.20;;;1.42;;
37409;SDS011;23275;48.914;12.566;2023-04-25T11:20:47;2.97;;;1.80;;
37409;SDS011;23275;48.914;12.566;2023-04-25T11:23:14;3.20;;;0.90;;
37409;SDS011;23275;48.914;12.566;2023-04-25T11:25:40;1.40;;;0.70;;
37409;SDS011;23275;48.914;12.566;2023-04-25T11:28:07;0.90;;;0.60;;
37409;SDS011;23275;48.914;12.566;2023-04-25T11:30:32;1.70;;;0.75;;
37409;SDS011;23275;48.914;12.566;2023-04-25T11:32:58;1.70;;;0.70;;
37409;SDS011;23275;48.914;12.566;2023-04-25T11:35:24;1.73;;;0.80;;
37409;SDS011;23275;48.914;12.566;2023-04-25T11:37:50;1.20;;;0.70;;
37409;SDS011;23275;48.914;12.566;2023-04-25T11:40:16;1.85;;;0.90;;
37409;SDS011;23275;48.914;12.566;2023-04-25T11:42:43;1.90;;;1.00;;
37409;SDS011;23275;48.914;12.566;2023-04-25T11:45:12;1.55;;;0.80;;
37409;SDS011;23275;48.914;12.566;2023-04-25T11:47:38;2.33;;;1.10;;
37409;SDS011;23275;48.914;12.566;2023-04-25T11:50:05;2.65;;;0.88;;
37409;SDS011;23275;48.914;12.566;2023-04-25T11:52:42;2.88;;;1.00;;
37409;SDS011;23275;48.914;12.566;2023-04-25T11:55:15;2.13;;;1.30;;
37409;SDS011;23275;48.914;12.566;2023-04-25T11:57:43;4.18;;;1.55;;
37409;SDS011;23275;48.914;12.566;2023-04-25T12:00:14;2.70;;;1.70;;
37409;SDS011;23275;48.914;12.566;2023-04-25T12:02:52;2.60;;;1.52;;
37409;SDS011;23275;48.914;12.566;2023-04-25T12:05:19;2.47;;;1.17;;
37409;SDS011;23275;48.914;12.566;2023-04-25T12:07:48;1.80;;;1.20;;
37409;SDS011;23275;48.914;12.566;2023-04-25T12:10:14;3.33;;;1.00;;
37409;SDS011;23275;48.914;12.566;2023-04-25T12:12:41;1.55;;;0.90;;
37409;SDS011;23275;48.914;12.566;2023-04-25T12:15:15;1.17;;;0.80;;
37409;SDS011;23275;48.914;12.566;2023-04-25T12:17:47;2.60;;;1.45;;
37409;SDS011;23275;48.914;12.566;2023-04-25T12:20:17;3.60;;;1.20;;
37409;SDS011;23275;48.914;12.566;2023-04-25T12:22:51;1.33;;;0.73;;
37409;SDS011;23275;48.914;12.566;2023-04-25T12:28:11;1.88;;;0.70;;
37409;SDS011;23275;48.914;12.566;2023-04-25T12:30:52;1.45;;;0.55;;
37409;SDS011;23275;48.914;12.566;2023-04-25T12:33:32;1.50;;;0.63;;
37409;SDS011;23275;48.914;12.566;2023-04-25T12:36:02;1.20;;;0.70;;
37409;SDS011;23275;48.914;12.566;2023-04-25T12:38:35;2.05;;;0.65;;
37409;SDS011;23275;48.914;12.566;2023-04-25T12:41:02;1.77;;;0.70;;
37409;SDS011;23275;48.914;12.566;2023-04-25T12:43:27;2.67;;;0.80;;
37409;SDS011;23275;48.914;12.566;2023-04-25T12:45:53;1.40;;;0.77;;
37409;SDS011;23275;48.914;12.566;2023-04-25T12:48:20;2.30;;;0.88;;
37409;SDS011;23275;48.914;12.566;2023-04-25T12:50:46;2.28;;;1.00;;
37409;SDS011;23275;48.914;12.566;2023-04-25T12:53:14;1.77;;;0.88;;
37409;SDS011;23275;48.914;12.566;2023-04-25T12:55:43;2.58;;;0.80;;
37409;SDS011;23275;48.914;12.566;2023-04-25T12:58:11;4.70;;;0.98;;
37409;SDS011;23275;48.914;12.566;2023-04-25T13:00:41;3.53;;;0.93;;
37409;SDS011;23275;48.914;12.566;2023-04-25T13:03:08;2.55;;;0.90;;
37409;SDS011;23275;48.914;12.566;2023-04-25T13:05:34;4.82;;;1.40;;
37409;SDS011;23275;48.914;12.566;2023-04-25T13:07:59;1.98;;;0.90;;
37409;SDS011;23275;48.914;12.566;2023-04-25T13:10:25;2.63;;;1.17;;
37409;SDS011;23275;48.914;12.566;2023-04-25T13:12:51;1.92;;;1.10;;
37409;SDS011;23275;48.914;12.566;2023-04-25T13:15:16;2.88;;;1.08;;
37409;SDS011;23275;48.914;12.566;2023-04-25T13:17:42;2.17;;;1.00;;
37409;SDS011;23275;48.914;12.566;2023-04-25T13:20:08;2.08;;;1.15;;
37409;SDS011;23275;48.914;12.566;2023-04-25T13:22:35;2.15;;;1.10;;
37409;SDS011;23275;48.914;12.566;2023-04-25T13:25:04;2.05;;;1.00;;
37409;SDS011;23275;48.914;12.566;2023-04-25T13:27:32;2.85;;;1.25;;
37409;SDS011;23275;48.914;12.566;2023-04-25T13:29:59;1.88;;;1.15;;
37409;SDS011;23275;48.914;12.566;2023-04-25T13:32:26;2.22;;;1.30;;
37409;SDS011;23275;48.914;12.566;2023-04-25T13:34:52;2.22;;;1.17;;
37409;SDS011;23275;48.914;12.566;2023-04-25T13:37:18;2.05;;;1.15;;
37409;SDS011;23275;48.914;12.566;2023-04-25T13:39:43;2.13;;;1.20;;
37409;SDS011;23275;48.914;12.566;2023-04-25T13:42:09;3.40;;;1.20;;
37409;SDS011;23275;48.914;12.566;2023-04-25T13:44:35;4.13;;;1.05;;
37409;SDS011;23275;48.914;12.566;2023-04-25T13:47:01;2.10;;;1.35;;
37409;SDS011;23275;48.914;12.566;2023-04-25T13:49:27;3.55;;;1.30;;
37409;SDS011;23275;48.914;12.566;2023-04-25T13:51:52;3.45;;;1.30;;
37409;SDS011;23275;48.914;12.566;2023-04-25T13:54:18;5.85;;;1.30;;
37409;SDS011;23275;48.914;12.566;2023-04-25T13:56:43;4.32;;;1.50;;
37409;SDS011;23275;48.914;12.566;2023-04-25T13:59:09;2.20;;;1.02;;
37409;SDS011;23275;48.914;12.566;2023-04-25T14:01:35;1.95;;;0.98;;
37409;SDS011;23275;48.914;12.566;2023-04-25T14:04:01;4.10;;;1.63;;
37409;SDS011;23275;48.914;12.566;2023-04-25T14:06:28;4.38;;;1.77;;
37409;SDS011;23275;48.914;12.566;2023-04-25T14:08:54;3.00;;;1.30;;
37409;SDS011;23275;48.914;12.566;2023-04-25T14:11:21;2.13;;;1.00;;
37409;SDS011;23275;48.914;12.566;2023-04-25T14:13:46;3.50;;;1.10;;
37409;SDS011;23275;48.914;12.566;2023-04-25T14:16:14;4.40;;;1.20;;
37409;SDS011;23275;48.914;12.566;2023-04-25T14:18:40;4.72;;;0.90;;
37409;SDS011;23275;48.914;12.566;2023-04-25T14:21:06;2.92;;;1.20;;
37409;SDS011;23275;48.914;12.566;2023-04-25T14:23:31;3.45;;;1.30;;
37409;SDS011;23275;48.914;12.566;2023-04-25T14:25:57;1.90;;;1.10;;
37409;SDS011;23275;48.914;12.566;2023-04-25T14:28:23;3.30;;;1.30;;
37409;SDS011;23275;48.914;12.566;2023-04-25T14:30:48;4.43;;;1.35;;
37409;SDS011;23275;48.914;12.566;2023-04-25T14:33:14;2.33;;;1.08;;
37409;SDS011;23275;48.914;12.566;2023-04-25T14:35:39;3.75;;;1.20;;
37409;SDS011;23275;48.914;12.566;2023-04-25T14:38:05;1.63;;;0.93;;
37409;SDS011;23275;48.914;12.566;2023-04-25T14:40:31;3.25;;;1.40;;
37409;SDS011;23275;48.914;12.566;2023-04-25T14:42:56;3.35;;;1.17;;
37409;SDS011;23275;48.914;12.566;2023-04-25T14:45:22;3.20;;;1.45;;